Time;durP1;ratioP1;P1;durP2;ratioP2;P2;SDS_P1;SDS_P2;PMS_P1;PMS_P2;Temp;Humidity;BMP_temperature;BMP_pressure;BME280_temperature;BME280_humidity;BME280_pressure;Samples;Min_cycle;Max_cycle;Signal;HPM_P1;HPM_P2
2023/06/10 00:01:30;;;;;;;0.30;0.30;;;18.60;99.00;;;;;;5094500;28;20032;-72
2023/06/10 00:03:55;;;;;;;0.45;0.45;;;18.60;98.90;;;;;;5094609;28;20052;-71
2023/06/10 00:06:24;;;;;;;0.40;0.40;;;18.60;99.60;;;;;;5094350;28;20040;-72
2023/06/10 00:08:50;;;;;;;0.40;0.40;;;18.50;99.50;;;;;;5094451;28;20040;-72
2023/06/10 00:11:16;;;;;;;0.50;0.50;;;18.50;99.80;;;;;;5094367;28;20040;-72
2023/06/10 00:13:41;;;;;;;0.60;0.60;;;18.40;99.90;;;;;;5094262;28;20039;-72
2023/06/10 00:16:07;;;;;;;0.40;0.40;;;18.40;99.90;;;;;;5093540;28;20121;-71
2023/06/10 00:18:32;;;;;;;1.90;1.80;;;18.40;99.90;;;;;;5094264;28;20051;-71
2023/06/10 00:21:04;;;;;;;0.40;0.40;;;18.40;99.90;;;;;;5094177;28;20043;-71
2023/06/10 00:23:37;;;;;;;0.40;0.40;;;18.40;99.90;;;;;;5094234;28;20464;-72
2023/06/10 00:26:03;;;;;;;0.40;0.40;;;18.30;99.90;;;;;;5094187;28;20044;-72
2023/06/10 00:28:29;;;;;;;0.30;0.30;;;18.30;99.90;;;;;;5094094;28;20122;-71
2023/06/10 00:30:54;;;;;;;0.40;0.40;;;18.30;99.90;;;;;;5094236;28;20450;-72
2023/06/10 00:33:20;;;;;;;0.40;0.40;;;18.20;99.90;;;;;;5093872;28;20413;-71
2023/06/10 00:35:46;;;;;;;0.40;0.40;;;18.20;99.90;;;;;;5093955;28;20058;-71
2023/06/10 00:38:14;;;;;;;0.40;0.40;;;18.10;99.90;;;;;;5094318;28;20372;-72
2023/06/10 00:40:40;;;;;;;1.33;0.82;;;18.10;99.90;;;;;;5094032;28;20038;-72
2023/06/10 00:43:07;;;;;;;0.57;0.57;;;18.00;99.90;;;;;;5094068;28;20093;-72
2023/06/10 00:45:33;;;;;;;0.40;0.40;;;18.00;99.90;;;;;;5093775;28;20040;-71
2023/06/10 00:48:00;;;;;;;0.40;0.40;;;18.00;99.90;;;;;;5093825;28;20044;-72
2023/06/10 00:50:26;;;;;;;0.35;0.35;;;18.00;99.90;;;;;;5094229;28;20051;-71
2023/06/10 00:52:56;;;;;;;0.53;0.53;;;17.90;99.90;;;;;;5093613;28;20376;-72
2023/06/10 00:55:23;;;;;;;0.40;0.40;;;17.80;99.90;;;;;;5094094;28;20278;-71
2023/06/10 00:57:49;;;;;;;;;;;17.80;99.90;;;;;;5094094;28;20409;-71
2023/06/10 01:00:15;;;;;;;0.60;0.60;;;17.80;99.90;;;;;;5093586;28;19939;-71
2023/06/10 01:02:41;;;;;;;0.30;0.30;;;17.80;99.90;;;;;;5093334;28;20472;-72
2023/06/10 01:05:08;;;;;;;0.40;0.40;;;17.80;99.90;;;;;;5093963;28;20290;-71
2023/06/10 01:07:46;;;;;;;0.50;0.50;;;17.80;99.90;;;;;;5093557;28;20032;-72
2023/06/10 01:10:26;;;;;;;0.30;0.30;;;17.80;99.90;;;;;;5093899;28;20075;-71
2023/06/10 01:12:56;;;;;;;0.40;0.40;;;17.70;99.90;;;;;;5093576;28;20039;-72
2023/06/10 01:15:22;;;;;;;0.30;0.30;;;17.70;99.90;;;;;;5093392;28;20154;-71
2023/06/10 01:18:17;;;;;;;0.75;0.75;;;17.70;99.90;;;;;;5093433;28;20036;-72
2023/06/10 01:20:43;;;;;;;0.30;0.30;;;17.70;99.90;;;;;;5093786;28;20031;-72
2023/06/10 01:23:10;;;;;;;0.40;0.40;;;17.60;99.90;;;;;;5093490;28;20047;-71
2023/06/10 01:25:38;;;;;;;;;;;17.60;99.90;;;;;;5093767;28;20040;-72
2023/06/10 01:28:28;;;;;;;0.40;0.40;;;17.50;99.90;;;;;;5093456;28;19916;-72
2023/06/10 01:31:17;;;;;;;0.40;0.40;;;17.50;99.90;;;;;;5093366;28;20060;-72
2023/06/10 01:33:46;;;;;;;0.38;0.38;;;17.40;99.90;;;;;;5093425;28;20040;-71
2023/06/10 01:36:15;;;;;;;0.55;0.55;;;17.40;99.90;;;;;;5093189;28;20086;-71
2023/06/10 01:38:44;;;;;;;0.43;0.43;;;17.50;99.90;;;;;;5093438;28;20032;-71
2023/06/10 01:41:12;;;;;;;0.30;0.30;;;17.30;99.90;;;;;;5093668;28;20079;-71
2023/06/10 01:43:38;;;;;;;0.60;0.60;;;17.20;99.90;;;;;;5092254;28;20044;-73
2023/06/10 01:46:04;;;;;;;0.40;0.40;;;17.20;99.90;;;;;;5093225;28;20044;-72
2023/06/10 01:48:30;;;;;;;0.30;0.30;;;17.20;99.90;;;;;;5093228;28;20116;-72
2023/06/10 01:50:56;;;;;;;0.40;0.40;;;17.10;99.90;;;;;;5093133;28;20531;-72
2023/06/10 01:53:22;;;;;;;0.30;0.30;;;17.10;99.90;;;;;;5093096;28;20174;-72
2023/06/10 01:55:48;;;;;;;0.30;0.30;;;17.00;99.90;;;;;;5093260;28;20494;-72
2023/06/10 01:58:13;;;;;;;0.63;0.43;;;16.90;99.90;;;;;;5093100;28;20052;-71
2023/06/10 02:00:39;;;;;;;0.30;0.30;;;16.90;99.90;;;;;;5093250;28;20036;-71
2023/06/10 02:03:05;;;;;;;0.30;0.30;;;16.90;99.90;;;;;;5092870;28;20352;-71
2023/06/10 02:05:31;;;;;;;0.30;0.30;;;16.80;99.90;;;;;;5091776;28;20060;-72
2023/06/10 02:07:57;;;;;;;0.33;0.33;;;16.80;99.90;;;;;;5093360;28;20086;-71
2023/06/10 02:10:23;;;;;;;0.40;0.40;;;16.80;99.90;;;;;;5093026;28;20361;-72
2023/06/10 02:12:49;;;;;;;0.40;0.40;;;16.70;99.90;;;;;;5093492;28;20040;-72
2023/06/10 02:15:14;;;;;;;0.30;0.30;;;16.70;99.90;;;;;;5096606;28;20036;-71
2023/06/10 02:17:40;;;;;;;0.30;0.30;;;16.70;99.90;;;;;;5096318;28;20131;-72
2023/06/10 02:20:07;;;;;;;0.30;0.30;;;16.60;99.90;;;;;;5096504;28;20079;-72
2023/06/10 02:22:32;;;;;;;;;;;16.60;99.90;;;;;;5097341;28;20384;-71
2023/06/10 02:24:58;;;;;;;0.40;0.40;;;16.50;99.90;;;;;;5096439;28;19916;-71
2023/06/10 02:27:24;;;;;;;0.47;0.47;;;16.60;99.90;;;;;;5096395;28;20036;-72
2023/06/10 02:29:50;;;;;;;0.30;0.30;;;16.50;99.90;;;;;;5096389;28;20048;-71
2023/06/10 02:32:15;;;;;;;0.40;0.40;;;16.50;99.90;;;;;;5096258;28;20381;-71
2023/06/10 02:34:43;;;;;;;0.50;0.50;;;16.40;99.90;;;;;;5096090;28;20036;-71
2023/06/10 02:37:09;;;;;;;0.38;0.38;;;16.40;99.90;;;;;;5096419;28;20048;-72
2023/06/10 02:39:35;;;;;;;0.40;0.40;;;16.30;99.90;;;;;;5096105;28;20048;-72
2023/06/10 02:42:00;;;;;;;0.40;0.40;;;16.30;99.90;;;;;;5096221;28;20047;-71
2023/06/10 02:44:26;;;;;;;0.90;0.90;;;16.20;99.90;;;;;;5096069;28;20035;-71
2023/06/10 02:46:51;;;;;;;0.40;0.40;;;16.20;99.90;;;;;;5095688;28;20043;-71
2023/06/10 02:49:17;;;;;;;0.40;0.40;;;16.10;99.90;;;;;;5096002;28;20075;-71
2023/06/10 02:51:43;;;;;;;0.70;0.70;;;16.10;99.90;;;;;;5095957;28;20044;-72
2023/06/10 02:54:08;;;;;;;0.30;0.30;;;16.10;99.90;;;;;;5095914;28;20071;-71
2023/06/10 02:56:34;;;;;;;0.30;0.30;;;16.00;99.90;;;;;;5096560;28;20051;-72
2023/06/10 02:59:00;;;;;;;0.40;0.40;;;16.00;99.90;;;;;;5095911;28;20105;-71
2023/06/10 03:01:26;;;;;;;0.40;0.40;;;15.90;99.90;;;;;;5095765;28;20467;-71
2023/06/10 03:03:52;;;;;;;0.30;0.30;;;15.90;99.90;;;;;;5095684;28;20105;-72
2023/06/10 03:06:18;;;;;;;0.30;0.30;;;15.90;99.90;;;;;;5095813;28;20040;-71
2023/06/10 03:08:45;;;;;;;0.40;0.40;;;15.90;99.90;;;;;;5095609;28;20122;-72
2023/06/10 03:11:11;;;;;;;0.40;0.40;;;15.80;99.90;;;;;;5095539;28;20036;-72
2023/06/10 03:13:38;;;;;;;0.40;0.40;;;15.80;99.90;;;;;;5095478;28;20486;-71
2023/06/10 03:16:04;;;;;;;0.30;0.30;;;15.80;99.90;;;;;;5095314;28;20467;-71
2023/06/10 03:18:30;;;;;;;0.40;0.40;;;15.80;99.90;;;;;;5095637;28;20044;-71
2023/06/10 03:20:56;;;;;;;0.30;0.30;;;15.80;99.90;;;;;;5095509;28;20096;-71
2023/06/10 03:23:23;;;;;;;17.88;8.57;;;15.70;99.90;;;;;;5095860;28;20050;-71
2023/06/10 03:25:48;;;;;;;0.65;0.65;;;15.70;99.90;;;;;;5095611;28;20036;-71
2023/06/10 03:28:14;;;;;;;0.60;0.60;;;15.60;99.90;;;;;;5095234;28;20081;-71
2023/06/10 03:30:40;;;;;;;0.60;0.60;;;15.70;99.90;;;;;;5095154;28;20031;-71
2023/06/10 03:33:05;;;;;;;0.40;0.40;;;15.60;99.90;;;;;;5095367;28;20036;-71
2023/06/10 03:35:34;;;;;;;0.50;0.50;;;15.50;99.90;;;;;;5094672;28;20445;-71
2023/06/10 03:38:00;;;;;;;0.30;0.30;;;15.50;99.90;;;;;;5094958;28;20122;-71
2023/06/10 03:40:26;;;;;;;0.40;0.40;;;15.50;99.90;;;;;;5095173;28;20127;-70
2023/06/10 03:42:51;;;;;;;1.13;1.03;;;15.50;99.90;;;;;;5094914;28;20048;-71
2023/06/10 03:45:17;;;;;;;0.60;0.60;;;15.60;99.90;;;;;;5094871;28;20063;-71
2023/06/10 03:47:43;;;;;;;0.40;0.40;;;15.50;99.90;;;;;;5094550;28;20051;-71
2023/06/10 03:50:10;;;;;;;0.40;0.40;;;15.60;99.90;;;;;;5094690;28;20036;-71
2023/06/10 03:52:36;;;;;;;0.40;0.40;;;15.50;99.90;;;;;;5095122;28;20684;-70
2023/06/10 03:55:02;;;;;;;2.10;1.07;;;15.50;99.90;;;;;;5094657;28;20046;-70
2023/06/10 03:57:27;;;;;;;0.40;0.40;;;15.50;99.90;;;;;;5094660;28;20040;-71
2023/06/10 03:59:55;;;;;;;0.30;0.30;;;15.60;99.90;;;;;;5094485;28;20207;-71
2023/06/10 04:02:21;;;;;;;0.40;0.40;;;15.60;99.90;;;;;;5094543;28;20044;-71
2023/06/10 04:04:46;;;;;;;0.65;0.65;;;15.60;99.90;;;;;;5094637;28;20052;-71
2023/06/10 04:07:13;;;;;;;2.00;1.80;;;15.60;99.90;;;;;;5094225;28;20135;-70
2023/06/10 04:09:39;;;;;;;0.65;0.65;;;15.60;99.90;;;;;;5094454;28;20075;-71
2023/06/10 04:12:08;;;;;;;0.40;0.40;;;15.50;99.90;;;;;;5094781;28;20078;-71
2023/06/10 04:14:36;;;;;;;0.40;0.40;;;15.50;99.90;;;;;;5094223;28;20383;-71
2023/06/10 04:17:02;;;;;;;0.40;0.40;;;15.50;99.90;;;;;;5094235;28;20070;-71
2023/06/10 04:19:28;;;;;;;0.50;0.50;;;15.40;99.90;;;;;;5094151;28;20084;-70
2023/06/10 04:21:54;;;;;;;0.40;0.40;;;15.40;99.90;;;;;;5094250;28;20114;-70
2023/06/10 04:24:19;;;;;;;0.50;0.50;;;15.40;99.90;;;;;;5094221;28;20182;-71
2023/06/10 04:26:45;;;;;;;0.50;0.50;;;15.40;99.90;;;;;;5094407;28;20028;-71
2023/06/10 04:29:10;;;;;;;0.40;0.40;;;15.40;99.90;;;;;;5094151;28;20083;-70
2023/06/10 04:31:36;;;;;;;0.60;0.60;;;15.40;99.90;;;;;;5094096;28;20096;-71
2023/06/10 04:34:02;;;;;;;0.40;0.40;;;15.40;99.90;;;;;;5093865;28;20032;-70
2023/06/10 04:36:29;;;;;;;1.95;1.00;;;15.40;99.90;;;;;;5093534;28;20182;-70
2023/06/10 04:38:55;;;;;;;0.40;0.40;;;15.40;99.90;;;;;;5092948;28;20384;-71
2023/06/10 04:41:22;;;;;;;0.40;0.40;;;15.40;99.90;;;;;;5093871;28;20040;-71
2023/06/10 04:43:47;;;;;;;0.50;0.50;;;15.40;99.90;;;;;;5094092;28;20047;-71
2023/06/10 04:46:13;;;;;;;0.50;0.50;;;15.50;99.90;;;;;;5093898;28;20376;-71
2023/06/10 04:48:39;;;;;;;0.40;0.40;;;15.50;99.90;;;;;;5092491;28;20492;-71
2023/06/10 04:51:05;;;;;;;0.50;0.50;;;15.50;99.90;;;;;;5093735;28;20047;-70
2023/06/10 04:53:31;;;;;;;0.50;0.50;;;15.60;99.90;;;;;;5093614;28;20040;-70
2023/06/10 04:55:57;;;;;;;0.47;0.47;;;15.50;99.90;;;;;;5093657;28;20332;-70
2023/06/10 04:58:23;;;;;;;0.53;0.53;;;15.50;99.90;;;;;;5093642;28;20043;-71
2023/06/10 05:00:49;;;;;;;0.50;0.50;;;15.50;99.90;;;;;;5093656;28;20434;-72
2023/06/10 05:03:15;;;;;;;0.50;0.50;;;15.50;99.90;;;;;;5093374;28;20105;-72
2023/06/10 05:05:40;;;;;;;0.50;0.50;;;15.70;99.90;;;;;;5094113;28;20468;-71
2023/06/10 05:08:06;;;;;;;0.50;0.50;;;15.60;99.90;;;;;;5094137;28;20040;-71
2023/06/10 05:10:31;;;;;;;0.40;0.40;;;15.60;99.90;;;;;;5093698;28;20040;-70
2023/06/10 05:12:58;;;;;;;0.50;0.50;;;15.60;99.90;;;;;;5093481;28;20514;-72
2023/06/10 05:15:24;;;;;;;0.50;0.50;;;15.70;99.90;;;;;;5093288;28;20471;-70
2023/06/10 05:17:50;;;;;;;0.93;0.93;;;15.70;99.90;;;;;;5093343;28;20066;-71
2023/06/10 05:20:16;;;;;;;0.50;0.50;;;15.70;99.90;;;;;;5093429;28;20054;-71
2023/06/10 05:22:41;;;;;;;0.50;0.50;;;15.90;99.90;;;;;;5093699;28;20040;-70
2023/06/10 05:25:07;;;;;;;0.50;0.50;;;16.10;99.90;;;;;;5093400;28;20040;-71
2023/06/10 05:27:33;;;;;;;0.60;0.60;;;16.30;99.90;;;;;;5093419;28;20047;-70
2023/06/10 05:29:59;;;;;;;0.50;0.50;;;16.60;99.90;;;;;;5093338;28;20425;-71
2023/06/10 05:32:24;;;;;;;0.50;0.50;;;16.90;99.90;;;;;;5093174;28;20078;-70
2023/06/10 05:34:50;;;;;;;0.60;0.60;;;17.20;99.90;;;;;;5093687;28;20036;-71
2023/06/10 05:37:16;;;;;;;0.40;0.40;;;17.50;99.90;;;;;;5091322;28;20044;-70
2023/06/10 05:39:41;;;;;;;0.60;0.60;;;17.80;99.90;;;;;;5093927;28;20058;-70
2023/06/10 05:42:07;;;;;;;0.40;0.40;;;18.20;99.90;;;;;;5093283;28;20123;-70
2023/06/10 05:44:34;;;;;;;0.70;0.70;;;18.40;99.90;;;;;;5093210;28;20422;-70
2023/06/10 05:46:59;;;;;;;0.30;0.30;;;18.60;99.90;;;;;;5093241;28;20039;-70
2023/06/10 05:49:25;;;;;;;0.40;0.40;;;18.80;99.90;;;;;;5096427;28;20517;-70
2023/06/10 05:51:52;;;;;;;0.40;0.40;;;19.00;99.90;;;;;;5097063;28;20040;-70
2023/06/10 05:54:18;;;;;;;0.40;0.40;;;19.10;99.90;;;;;;5095805;28;20555;-70
2023/06/10 05:56:44;;;;;;;0.30;0.30;;;19.20;99.90;;;;;;5096937;28;20071;-70
2023/06/10 05:59:10;;;;;;;0.50;0.50;;;19.30;99.90;;;;;;5097107;28;20468;-70
2023/06/10 06:01:35;;;;;;;0.50;0.50;;;19.40;99.90;;;;;;5097074;28;20495;-70
2023/06/10 06:04:01;;;;;;;0.30;0.30;;;19.60;99.90;;;;;;5097381;28;20056;-71
2023/06/10 06:06:26;;;;;;;0.30;0.30;;;19.70;99.90;;;;;;5096546;28;20115;-70
2023/06/10 06:08:52;;;;;;;0.50;0.50;;;19.80;99.90;;;;;;5097197;28;20457;-70
2023/06/10 06:11:17;;;;;;;0.30;0.30;;;19.80;99.90;;;;;;5096834;28;20115;-71
2023/06/10 06:13:43;;;;;;;0.30;0.30;;;19.90;99.90;;;;;;5096860;28;20071;-71
2023/06/10 06:16:09;;;;;;;0.40;0.40;;;20.10;99.90;;;;;;5096424;28;20035;-71
2023/06/10 06:18:34;;;;;;;0.40;0.40;;;20.20;99.90;;;;;;5096548;28;20122;-71
2023/06/10 06:21:00;;;;;;;2.27;0.77;;;20.20;99.90;;;;;;5096521;28;20372;-71
2023/06/10 06:23:25;;;;;;;0.57;0.57;;;20.10;99.90;;;;;;5096618;28;20040;-71
2023/06/10 06:25:51;;;;;;;0.30;0.30;;;20.00;99.90;;;;;;5096479;28;20181;-70
2023/06/10 06:28:18;;;;;;;1.07;1.00;;;20.00;99.90;;;;;;5096578;28;20039;-71
2023/06/10 06:30:44;;;;;;;0.50;0.50;;;20.00;99.90;;;;;;5096367;28;20122;-71
2023/06/10 06:33:10;;;;;;;0.50;0.50;;;20.00;99.90;;;;;;5096223;28;20166;-70
2023/06/10 06:35:36;;;;;;;21.63;1.83;;;20.00;99.90;;;;;;5096283;28;20451;-70
2023/06/10 06:38:01;;;;;;;0.30;0.30;;;20.10;99.90;;;;;;5095165;28;20047;-71
2023/06/10 06:40:27;;;;;;;0.40;0.40;;;20.10;99.90;;;;;;5096313;28;20119;-71
2023/06/10 06:42:52;;;;;;;0.30;0.30;;;20.20;99.90;;;;;;5096265;28;20211;-71
2023/06/10 06:45:18;;;;;;;0.40;0.40;;;20.20;99.90;;;;;;5096163;28;20047;-70
2023/06/10 06:47:43;;;;;;;0.40;0.40;;;20.20;99.90;;;;;;5096033;28;20044;-71
2023/06/10 06:50:10;;;;;;;0.30;0.30;;;20.10;99.90;;;;;;5094854;28;20040;-70
2023/06/10 06:52:35;;;;;;;0.30;0.30;;;20.10;99.90;;;;;;5095991;28;20036;-71
2023/06/10 06:55:01;;;;;;;0.40;0.40;;;20.20;99.90;;;;;;5096203;28;20040;-72
2023/06/10 06:57:26;;;;;;;0.40;0.40;;;20.10;99.90;;;;;;5095979;28;20114;-72
2023/06/10 06:59:52;;;;;;;2.03;1.03;;;20.20;99.90;;;;;;5095602;28;20044;-71
2023/06/10 07:02:19;;;;;;;0.30;0.30;;;20.20;99.90;;;;;;5095896;28;20040;-71
2023/06/10 07:04:45;;;;;;;0.30;0.30;;;20.40;99.90;;;;;;5095959;28;20091;-72
2023/06/10 07:07:11;;;;;;;0.30;0.30;;;20.60;99.90;;;;;;5094586;28;20047;-71
2023/06/10 07:09:38;;;;;;;0.20;0.20;;;20.70;99.90;;;;;;5094877;28;20040;-71
2023/06/10 07:12:03;;;;;;;;;;;21.00;99.90;;;;;;5096136;28;20491;-71
2023/06/10 07:14:29;;;;;;;0.40;0.40;;;21.30;99.90;;;;;;5095704;28;19966;-70
2023/06/10 07:16:55;;;;;;;0.30;0.30;;;21.40;99.90;;;;;;5095523;28;20513;-70
2023/06/10 07:19:20;;;;;;;0.33;0.33;;;21.50;99.90;;;;;;5095467;28;20427;-72
2023/06/10 07:21:46;;;;;;;1.13;0.80;;;21.70;99.90;;;;;;5095510;28;20032;-71
2023/06/10 07:24:11;;;;;;;0.30;0.30;;;21.60;99.90;;;;;;5095649;28;20079;-71
2023/06/10 07:26:37;;;;;;;0.30;0.30;;;21.50;99.90;;;;;;5095471;28;20052;-71
2023/06/10 07:29:03;;;;;;;0.40;0.40;;;21.70;99.90;;;;;;5095484;28;20043;-71
2023/06/10 07:31:28;;;;;;;0.40;0.40;;;21.80;99.90;;;;;;5095268;28;20038;-71
2023/06/10 07:33:54;;;;;;;0.40;0.40;;;21.90;99.90;;;;;;5095662;28;20414;-72
2023/06/10 07:36:20;;;;;;;2.13;1.07;;;22.00;99.90;;;;;;5095040;28;20040;-71
2023/06/10 07:38:45;;;;;;;0.40;0.40;;;21.90;99.90;;;;;;5095488;28;20032;-71
2023/06/10 07:41:11;;;;;;;0.60;0.60;;;22.00;99.90;;;;;;5095027;28;20468;-71
2023/06/10 07:43:38;;;;;;;1.60;1.43;;;22.10;99.90;;;;;;5094780;28;20077;-72
2023/06/10 07:46:05;;;;;;;0.38;0.38;;;22.10;99.90;;;;;;5095088;28;20044;-71
2023/06/10 07:48:31;;;;;;;0.85;0.73;;;22.10;99.90;;;;;;5094663;28;20086;-71
2023/06/10 07:50:56;;;;;;;0.30;0.30;;;22.00;99.90;;;;;;5094099;28;20467;-72
2023/06/10 07:53:22;;;;;;;0.30;0.30;;;22.20;99.90;;;;;;5094852;28;20324;-71
2023/06/10 07:55:47;;;;;;;1.60;1.23;;;22.20;99.90;;;;;;5094733;28;20069;-71
2023/06/10 07:58:13;;;;;;;2.80;1.33;;;22.40;99.90;;;;;;5094688;28;20044;-71
2023/06/10 08:00:39;;;;;;;0.30;0.30;;;22.50;99.90;;;;;;5094579;28;20048;-72
2023/06/10 08:03:04;;;;;;;0.30;0.30;;;22.60;99.90;;;;;;5094211;28;20178;-72
2023/06/10 08:05:30;;;;;;;0.47;0.47;;;22.60;99.90;;;;;;5094550;28;20048;-71
2023/06/10 08:07:56;;;;;;;0.30;0.30;;;22.50;99.90;;;;;;5094368;28;20035;-72
2023/06/10 08:10:21;;;;;;;0.30;0.30;;;22.40;99.90;;;;;;5094113;28;20055;-70
2023/06/10 08:12:47;;;;;;;0.63;0.63;;;22.50;99.90;;;;;;5094328;28;20040;-72
2023/06/10 08:15:13;;;;;;;0.40;0.40;;;22.50;99.90;;;;;;5093235;28;20040;-71
2023/06/10 08:17:39;;;;;;;0.50;0.50;;;22.40;99.90;;;;;;5094202;28;20077;-71
2023/06/10 08:20:06;;;;;;;0.30;0.30;;;22.40;99.90;;;;;;5094231;28;20048;-71
2023/06/10 08:22:31;;;;;;;0.32;0.32;;;22.60;99.90;;;;;;5094115;28;20055;-71
2023/06/10 08:24:57;;;;;;;0.60;0.57;;;22.80;99.90;;;;;;5093937;28;20031;-71
2023/06/10 08:27:23;;;;;;;1.33;0.77;;;23.00;99.90;;;;;;5094060;28;20039;-71
2023/06/10 08:29:48;;;;;;;0.40;0.40;;;23.20;99.90;;;;;;5092997;28;20044;-71
2023/06/10 08:32:14;;;;;;;0.30;0.30;;;23.40;99.90;;;;;;5094140;28;20446;-71
2023/06/10 08:34:40;;;;;;;0.40;0.40;;;23.40;99.90;;;;;;5093974;28;20039;-71
2023/06/10 08:37:06;;;;;;;0.50;0.50;;;23.50;99.90;;;;;;5094333;28;20204;-71
2023/06/10 08:39:32;;;;;;;0.40;0.40;;;23.60;99.90;;;;;;5094027;28;20170;-71
2023/06/10 08:42:16;;;;;;;0.50;0.50;;;23.70;99.90;;;;;;5093828;28;20490;-71
2023/06/10 08:44:42;;;;;;;0.30;0.30;;;23.80;99.90;;;;;;5093937;28;20411;-71
2023/06/10 08:47:14;;;;;;;3.38;1.27;;;24.00;99.90;;;;;;5093985;28;20384;-72
2023/06/10 08:49:45;;;;;;;0.30;0.30;;;24.10;99.90;;;;;;5093975;28;20036;-71
2023/06/10 08:52:18;;;;;;;0.60;0.60;;;24.30;99.90;;;;;;5093799;28;20046;-72
2023/06/10 08:55:09;;;;;;;1.38;1.27;;;24.30;99.90;;;;;;5093614;28;20353;-72
2023/06/10 08:57:35;;;;;;;0.40;0.40;;;24.40;99.90;;;;;;5093079;28;20052;-71
2023/06/10 09:00:02;;;;;;;0.40;0.40;;;24.50;99.90;;;;;;5093767;28;20043;-72
2023/06/10 09:02:28;;;;;;;0.40;0.40;;;24.60;99.90;;;;;;5093746;28;20409;-71
2023/06/10 09:04:57;;;;;;;0.30;0.30;;;24.60;99.90;;;;;;5093705;28;20122;-71
2023/06/10 09:07:23;;;;;;;0.30;0.30;;;24.70;99.10;;;;;;5093711;28;20036;-71
2023/06/10 09:09:49;;;;;;;0.68;0.68;;;24.70;99.20;;;;;;5092201;28;20089;-71
2023/06/10 09:12:15;;;;;;;0.63;0.63;;;24.80;99.60;;;;;;5093729;28;20036;-71
2023/06/10 09:14:42;;;;;;;0.30;0.30;;;24.80;99.80;;;;;;5093675;28;20098;-71
2023/06/10 09:17:07;;;;;;;1.17;0.88;;;25.00;99.00;;;;;;5092296;28;20047;-72
2023/06/10 09:19:35;;;;;;;0.50;0.50;;;25.10;98.80;;;;;;5093759;28;20059;-72
2023/06/10 09:22:01;;;;;;;0.40;0.40;;;25.10;98.40;;;;;;5094906;28;20048;-71
2023/06/10 09:24:27;;;;;;;2.83;1.40;;;25.20;98.90;;;;;;5097645;28;20038;-71
2023/06/10 09:27:04;;;;;;;0.43;0.43;;;25.30;98.60;;;;;;5097479;28;20093;-71
2023/06/10 09:29:29;;;;;;;0.30;0.30;;;25.40;99.30;;;;;;5097709;28;20110;-71
2023/06/10 09:31:55;;;;;;;0.30;0.30;;;25.50;98.40;;;;;;5097262;28;20698;-71
2023/06/10 09:34:25;;;;;;;0.40;0.40;;;25.50;98.70;;;;;;5097521;28;20036;-71
2023/06/10 09:36:51;;;;;;;0.47;0.47;;;25.70;98.00;;;;;;5097683;28;20079;-70
2023/06/10 09:39:18;;;;;;;0.30;0.30;;;25.70;98.00;;;;;;5097380;28;20079;-71
2023/06/10 09:41:45;;;;;;;0.30;0.30;;;25.70;97.70;;;;;;5097115;28;20605;-72
2023/06/10 09:44:19;;;;;;;0.60;0.60;;;25.80;97.30;;;;;;5097373;28;20036;-71
2023/06/10 09:46:46;;;;;;;0.75;0.60;;;25.80;96.10;;;;;;5097626;28;20040;-72
2023/06/10 09:49:13;;;;;;;0.93;0.52;;;26.00;96.90;;;;;;5097217;28;20047;-71
2023/06/10 09:51:52;;;;;;;0.57;0.57;;;26.10;96.00;;;;;;5097135;28;20483;-72
2023/06/10 09:54:18;;;;;;;0.28;0.28;;;26.20;95.70;;;;;;5097159;28;20085;-71
2023/06/10 09:56:51;;;;;;;0.20;0.20;;;26.30;95.50;;;;;;5097196;28;20036;-71
2023/06/10 09:59:32;;;;;;;0.20;0.20;;;26.30;95.10;;;;;;5097458;28;20047;-72
2023/06/10 10:01:58;;;;;;;0.30;0.30;;;26.40;94.20;;;;;;5097081;28;20047;-71
2023/06/10 10:04:25;;;;;;;0.30;0.30;;;26.30;94.30;;;;;;5097088;28;20048;-72
2023/06/10 10:06:50;;;;;;;0.30;0.30;;;26.30;94.50;;;;;;5096960;28;20040;-71
2023/06/10 10:09:16;;;;;;;2.00;0.83;;;26.30;92.80;;;;;;5096928;28;20051;-71
2023/06/10 10:11:43;;;;;;;0.53;0.53;;;26.30;92.80;;;;;;5097064;28;20331;-72
2023/06/10 10:14:11;;;;;;;0.30;0.30;;;26.30;91.80;;;;;;5096731;28;20044;-72
2023/06/10 10:16:43;;;;;;;0.47;0.40;;;26.40;92.70;;;;;;5096807;28;20051;-71
2023/06/10 10:19:23;;;;;;;0.20;0.20;;;26.50;90.90;;;;;;5097285;28;20048;-72
2023/06/10 10:22:01;;;;;;;0.40;0.40;;;26.60;91.20;;;;;;5096850;28;20127;-72
2023/06/10 10:24:36;;;;;;;0.35;0.35;;;26.70;91.50;;;;;;5096798;28;20498;-71
2023/06/10 10:27:07;;;;;;;0.28;0.28;;;26.80;91.80;;;;;;5096743;28;20032;-71
2023/06/10 10:29:39;;;;;;;0.25;0.25;;;26.90;92.00;;;;;;5096646;28;20044;-72
2023/06/10 10:32:07;;;;;;;0.30;0.30;;;27.10;91.90;;;;;;5096537;28;20102;-71
2023/06/10 10:34:57;;;;;;;0.40;0.40;;;27.20;90.20;;;;;;5095822;28;20039;-72
2023/06/10 10:37:23;;;;;;;0.30;0.30;;;27.40;88.20;;;;;;5096512;28;20044;-72
2023/06/10 10:39:49;;;;;;;0.30;0.30;;;27.50;86.80;;;;;;5096348;28;20475;-71
2023/06/10 10:42:17;;;;;;;0.75;0.68;;;27.40;88.80;;;;;;5096279;28;20270;-71
2023/06/10 10:44:43;;;;;;;0.90;0.77;;;27.50;87.60;;;;;;5096048;28;20526;-71
2023/06/10 10:47:10;;;;;;;0.40;0.40;;;27.60;87.10;;;;;;5096156;28;20467;-73
2023/06/10 10:49:38;;;;;;;0.30;0.30;;;27.50;86.60;;;;;;5096356;28;20032;-71
2023/06/10 10:52:06;;;;;;;0.43;0.40;;;27.50;85.00;;;;;;5095713;28;20527;-72
2023/06/10 10:54:37;;;;;;;2.38;0.40;;;27.50;85.70;;;;;;5095894;28;20047;-71
2023/06/10 10:57:08;;;;;;;0.30;0.30;;;27.50;81.50;;;;;;5095968;28;20054;-71
2023/06/10 10:59:51;;;;;;;0.30;0.30;;;27.60;82.80;;;;;;5095961;28;20044;-71
2023/06/10 11:02:32;;;;;;;0.40;0.40;;;27.80;83.90;;;;;;5095962;28;20089;-71
2023/06/10 11:04:57;;;;;;;0.30;0.30;;;27.90;79.10;;;;;;5096248;28;20054;-73
2023/06/10 11:07:25;;;;;;;0.20;0.20;;;27.90;81.00;;;;;;5095774;28;20087;-71
2023/06/10 11:10:02;;;;;;;0.30;0.30;;;28.00;77.80;;;;;;5094459;28;20040;-72
2023/06/10 11:12:54;;;;;;;0.40;0.40;;;28.00;78.90;;;;;;5095477;28;20040;-72
2023/06/10 11:15:23;;;;;;;0.30;0.30;;;28.00;81.10;;;;;;5091491;28;20079;-72
2023/06/10 11:18:10;;;;;;;6.35;1.20;;;28.10;82.20;;;;;;5095559;28;20112;-71
2023/06/10 11:20:48;;;;;;;0.30;0.30;;;28.20;80.80;;;;;;5095475;28;20137;-71
2023/06/10 11:23:29;;;;;;;0.30;0.30;;;28.30;78.10;;;;;;5095631;28;20036;-72
2023/06/10 11:26:18;;;;;;;0.50;0.50;;;28.50;80.80;;;;;;5095294;28;20091;-72
2023/06/10 11:28:47;;;;;;;0.30;0.30;;;28.60;76.50;;;;;;5084871;28;20056;-71
2023/06/10 11:31:22;;;;;;;0.30;0.30;;;28.70;75.80;;;;;;5095309;28;20128;-72
2023/06/10 11:33:56;;;;;;;0.43;0.43;;;28.70;75.00;;;;;;5095140;28;20036;-72
2023/06/10 11:36:22;;;;;;;0.28;0.28;;;28.70;73.20;;;;;;5095184;28;20043;-71
2023/06/10 11:38:48;;;;;;;;;;;28.80;72.60;;;;;;5095912;28;20047;-72
2023/06/10 11:41:14;;;;;;;0.32;0.32;;;28.80;71.60;;;;;;5095195;28;20288;-72
2023/06/10 11:43:46;;;;;;;0.98;0.85;;;28.90;70.00;;;;;;5095122;28;20048;-71
2023/06/10 11:46:15;;;;;;;0.20;0.20;;;29.00;71.80;;;;;;5093977;28;20036;-71
2023/06/10 11:48:57;;;;;;;0.40;0.40;;;29.20;73.70;;;;;;5094952;28;20036;-72
2023/06/10 11:51:32;;;;;;;0.35;0.35;;;29.20;70.50;;;;;;5095127;28;20476;-73
2023/06/10 11:53:58;;;;;;;0.30;0.30;;;29.20;72.20;;;;;;5095149;28;20122;-72
2023/06/10 11:56:28;;;;;;;0.20;0.20;;;29.30;72.60;;;;;;5094801;28;20506;-71
2023/06/10 11:59:03;;;;;;;0.30;0.30;;;29.30;71.30;;;;;;5094783;28;20040;-72
2023/06/10 12:01:30;;;;;;;4.07;0.80;;;29.30;69.90;;;;;;5095059;28;20064;-71
2023/06/10 12:03:59;;;;;;;0.30;0.30;;;29.40;69.90;;;;;;5093016;28;20475;-72
2023/06/10 12:06:25;;;;;;;0.93;0.68;;;29.40;69.10;;;;;;5094660;28;20054;-72
2023/06/10 12:08:51;;;;;;;0.32;0.32;;;29.40;69.70;;;;;;5093358;28;20039;-71
2023/06/10 12:11:17;;;;;;;0.55;0.52;;;29.30;70.10;;;;;;5094670;28;20490;-72
2023/06/10 12:13:50;;;;;;;0.30;0.30;;;29.40;69.90;;;;;;5094459;28;20063;-71
2023/06/10 12:16:16;;;;;;;0.20;0.20;;;29.30;70.10;;;;;;5094509;28;20040;-72
2023/06/10 12:18:46;;;;;;;;;;;29.30;71.70;;;;;;5094634;28;20503;-72
2023/06/10 12:21:18;;;;;;;0.20;0.20;;;29.40;73.50;;;;;;5094515;28;19974;-73
2023/06/10 12:24:07;;;;;;;2.65;1.38;;;29.50;71.50;;;;;;5094340;28;20081;-71
2023/06/10 12:26:41;;;;;;;0.30;0.30;;;29.70;71.90;;;;;;5094266;28;20101;-71
2023/06/10 12:29:13;;;;;;;0.38;0.38;;;29.90;69.10;;;;;;5094626;28;20040;-71
2023/06/10 12:31:58;;;;;;;1.30;0.63;;;29.80;64.70;;;;;;5093859;28;20463;-72
2023/06/10 12:34:31;;;;;;;0.30;0.30;;;29.90;68.70;;;;;;5094101;28;20141;-72
2023/06/10 12:36:56;;;;;;;0.40;0.40;;;30.00;68.90;;;;;;5094105;28;20048;-73
2023/06/10 12:39:22;;;;;;;0.30;0.30;;;30.00;69.40;;;;;;5094543;28;20673;-72
2023/06/10 12:41:49;;;;;;;1.50;0.40;;;30.10;69.40;;;;;;5094033;28;20048;-72
2023/06/10 12:44:15;;;;;;;0.30;0.30;;;30.10;65.30;;;;;;5093992;28;20043;-71
2023/06/10 12:46:40;;;;;;;0.30;0.30;;;30.10;65.30;;;;;;5093932;28;20088;-71
2023/06/10 12:49:06;;;;;;;0.30;0.30;;;30.30;63.60;;;;;;5094078;28;20114;-72
2023/06/10 12:51:31;;;;;;;0.30;0.30;;;30.30;62.60;;;;;;5093808;28;20277;-72